createdAt,value
2022-08-05T00:00:17.321Z,57.81
2022-08-05T00:02:51.724Z,57.07
2022-08-05T00:06:02.817Z,57.56
2022-08-05T00:08:32.922Z,57.42
2022-08-05T00:11:00.983Z,57.81
2022-08-05T00:13:39.445Z,57.60
2022-08-05T00:16:12.186Z,56.93
2022-08-05T00:18:40.886Z,57.51
2022-08-05T00:21:10.149Z,57.42
2022-08-05T00:23:46.165Z,57.48
2022-08-05T00:26:20.878Z,58.17
2022-08-05T00:28:49.577Z,57.71
2022-08-05T00:31:53.827Z,57.51
2022-08-05T00:34:54.890Z,58.02
2022-08-05T00:37:11.208Z,57.97
2022-08-05T00:39:57.293Z,57.85
2022-08-05T00:42:32.091Z,58.56
2022-08-05T00:45:00.351Z,59.52
2022-08-05T00:47:31.642Z,60.09
2022-08-05T00:50:15.378Z,60.16
2022-08-05T00:52:45.535Z,60.31
2022-08-05T00:55:14.959Z,60.94
2022-08-05T00:57:57.980Z,61.27
2022-08-05T01:00:28.173Z,61.39
2022-08-05T01:02:56.508Z,62.11
2022-08-05T01:05:24.801Z,62.41
2022-08-05T01:08:39.950Z,62.17
2022-08-05T01:10:53.295Z,61.65
2022-08-05T01:13:57.465Z,61.91
2022-08-05T01:16:33.123Z,61.54
2022-08-05T01:19:06.620Z,61.72
2022-08-05T01:21:50.613Z,61.80
2022-08-05T01:24:39.357Z,61.50
2022-08-05T01:27:25.549Z,61.82
2022-08-05T01:29:54.833Z,61.44
2022-08-05T01:32:23.805Z,61.87
2022-08-05T01:34:57.571Z,62.34
2022-08-05T01:37:48.399Z,62.67
2022-08-05T01:40:18.035Z,63.01
2022-08-05T01:42:46.295Z,63.01
2022-08-05T01:45:14.401Z,62.93
2022-08-05T01:47:44.495Z,62.75
2022-08-05T01:50:28.581Z,62.62
2022-08-05T01:53:00.679Z,62.40
2022-08-05T01:55:29.223Z,62.72
2022-08-05T01:58:12.657Z,62.99
2022-08-05T02:00:45.750Z,62.90
2022-08-05T02:03:44.075Z,62.62
2022-08-05T02:06:23.918Z,62.32
2022-08-05T02:08:59.344Z,62.65
2022-08-05T02:11:33.359Z,63.62
2022-08-05T02:14:04.949Z,64.36
2022-08-05T02:16:42.015Z,64.57
2022-08-05T02:19:28.202Z,65.06
2022-08-05T02:22:08.630Z,65.08
2022-08-05T02:24:38.238Z,65.24
2022-08-05T02:27:10.158Z,64.75
2022-08-05T02:29:59.798Z,64.52
2022-08-05T02:32:29.250Z,64.38
2022-08-05T02:34:59.912Z,64.20
2022-08-05T02:37:37.013Z,64.29
2022-08-05T02:40:04.638Z,64.21
2022-08-05T02:42:37.144Z,64.31
2022-08-05T02:45:04.808Z,64.73
2022-08-05T02:48:06.769Z,65.05
2022-08-05T02:50:19.862Z,65.26
2022-08-05T02:52:47.184Z,64.84
2022-08-05T02:55:14.860Z,65.06
2022-08-05T02:58:11.235Z,64.70
2022-08-05T03:00:32.946Z,64.24
2022-08-05T03:03:01.677Z,64.22
2022-08-05T03:06:56.886Z,64.45
2022-08-05T03:08:16.675Z,64.58
2022-08-05T03:11:47.620Z,64.94
2022-08-05T03:13:51.605Z,66.31
2022-08-05T03:16:29.343Z,66.50
2022-08-05T03:19:12.588Z,66.64
2022-08-05T03:21:48.771Z,66.28
2022-08-05T03:24:29.404Z,66.36
2022-08-05T03:26:59.469Z,66.47
2022-08-05T03:29:45.939Z,66.90
2022-08-05T03:32:15.538Z,67.16
2022-08-05T03:34:47.238Z,67.72
2022-08-05T03:37:19.894Z,68.27
2022-08-05T03:40:01.820Z,68.03
2022-08-05T03:42:32.086Z,67.03
2022-08-05T03:45:01.877Z,68.05
2022-08-05T03:47:47.892Z,68.52
2022-08-05T03:50:17.072Z,68.44
2022-08-05T03:55:00.221Z,68.02
2022-08-05T03:56:27.883Z,68.66
2022-08-05T03:59:01.319Z,68.80
2022-08-05T04:01:32.236Z,69.10
2022-08-05T04:04:09.211Z,68.95
2022-08-05T04:06:37.988Z,68.64
2022-08-05T04:09:06.416Z,67.73
2022-08-05T04:11:50.491Z,67.07
2022-08-05T04:14:29.878Z,67.15
2022-08-05T04:17:00.104Z,66.97
2022-08-05T04:19:30.634Z,66.91
2022-08-05T04:22:08.529Z,66.61
2022-08-05T04:24:44.479Z,66.51
2022-08-05T04:27:13.471Z,66.91
2022-08-05T04:29:41.523Z,67.28
2022-08-05T04:32:09.893Z,67.38
2022-08-05T04:34:40.913Z,66.87
2022-08-05T04:37:10.476Z,66.66
2022-08-05T04:39:39.141Z,66.69
2022-08-05T04:42:07.954Z,65.98
2022-08-05T04:44:36.692Z,65.49
2022-08-05T04:47:09.943Z,64.74
2022-08-05T04:50:01.678Z,64.47
2022-08-05T04:52:27.672Z,64.79
2022-08-05T04:54:57.159Z,64.57
2022-08-05T04:57:28.543Z,64.78
2022-08-05T04:59:58.572Z,64.48
2022-08-05T05:02:37.433Z,64.57
2022-08-05T05:05:26.375Z,64.34
2022-08-05T05:08:14.140Z,64.09
2022-08-05T05:10:55.771Z,63.78
2022-08-05T05:13:23.398Z,63.38
2022-08-05T05:15:59.474Z,63.33
2022-08-05T05:18:34.237Z,63.07
2022-08-05T05:21:03.157Z,62.85
2022-08-05T05:24:02.310Z,62.37
2022-08-05T05:26:18.306Z,61.68
2022-08-05T05:28:45.691Z,61.23
2022-08-05T05:31:13.197Z,60.99
2022-08-05T05:33:59.783Z,60.70
2022-08-05T05:36:28.733Z,59.98
2022-08-05T05:38:58.014Z,59.90
2022-08-05T05:41:26.340Z,60.19
2022-08-05T05:44:35.608Z,60.55
2022-08-05T05:46:56.369Z,59.75
2022-08-05T05:49:25.570Z,59.83
2022-08-05T05:51:53.759Z,59.45
2022-08-05T05:54:22.201Z,58.92
2022-08-05T05:57:13.621Z,58.00
2022-08-05T05:59:47.159Z,57.21
2022-08-05T06:02:16.215Z,57.09
2022-08-05T06:04:44.649Z,56.84
2022-08-05T06:07:16.677Z,56.92
2022-08-05T06:10:03.434Z,57.98
2022-08-05T06:12:35.297Z,59.10
2022-08-05T06:15:13.535Z,59.81
2022-08-05T06:17:53.075Z,58.77
2022-08-05T06:20:21.924Z,59.39
2022-08-05T06:22:49.347Z,59.50
2022-08-05T06:25:59.028Z,59.22
2022-08-05T06:28:10.685Z,59.03
2022-08-05T06:30:40.611Z,58.71
2022-08-05T06:33:10.076Z,58.37
2022-08-05T06:36:07.749Z,57.80
2022-08-05T06:38:35.682Z,58.02
2022-08-05T06:41:05.292Z,57.29
2022-08-05T06:43:57.507Z,56.89
2022-08-05T06:46:29.678Z,50.38
2022-08-05T06:48:59.751Z,45.98
2022-08-05T06:51:30.790Z,41.43
2022-08-05T06:53:59.535Z,40.11
2022-08-05T06:56:28.399Z,39.47
2022-08-05T06:58:55.775Z,38.33
2022-08-05T07:01:23.603Z,38.28
2022-08-05T07:03:55.310Z,37.53
2022-08-05T07:06:23.716Z,36.95
2022-08-05T07:08:52.059Z,36.08
2022-08-05T07:11:25.520Z,35.33
2022-08-05T07:14:20.143Z,35.23
2022-08-05T07:18:08.130Z,33.19
2022-08-05T07:22:28.116Z,32.67
2022-08-05T07:25:21.935Z,30.97
2022-08-05T07:27:57.771Z,31.59
2022-08-05T07:30:38.995Z,33.21
2022-08-05T07:33:09.486Z,31.99
2022-08-05T07:36:04.849Z,31.39
2022-08-05T07:38:34.149Z,30.83
2022-08-05T07:42:07.128Z,31.28
2022-08-05T07:44:00.293Z,31.56
2022-08-05T07:46:29.308Z,30.86
2022-08-05T07:49:02.777Z,31.66
2022-08-05T07:51:37.359Z,32.78
2022-08-05T07:54:08.397Z,32.20
2022-08-05T07:57:00.793Z,32.34
2022-08-05T07:59:39.047Z,32.84
2022-08-05T08:02:15.750Z,31.86
2022-08-05T08:04:48.573Z,31.71
2022-08-05T08:07:18.097Z,31.87
2022-08-05T08:09:46.313Z,31.65
2022-08-05T08:12:30.587Z,30.37
2022-08-05T08:15:03.697Z,29.88
2022-08-05T08:17:32.801Z,30.65
2022-08-05T08:20:21.546Z,30.53
2022-08-05T08:22:54.286Z,30.75
2022-08-05T08:25:27.205Z,30.32
2022-08-05T08:28:18.758Z,30.78
2022-08-05T08:30:58.861Z,31.76
2022-08-05T08:33:27.292Z,31.10
2022-08-05T08:36:18.416Z,31.08
2022-08-05T08:38:43.675Z,30.41
2022-08-05T08:41:20.652Z,30.96
2022-08-05T08:45:20.398Z,29.96
2022-08-05T08:46:41.352Z,30.13
2022-08-05T08:50:07.631Z,30.90
2022-08-05T08:52:03.359Z,30.28
2022-08-05T08:54:36.568Z,29.10
2022-08-05T08:57:06.177Z,28.52
2022-08-05T08:59:39.070Z,28.39
2022-08-05T09:02:09.896Z,30.71
2022-08-05T09:04:58.154Z,33.26
2022-08-05T09:07:29.068Z,34.61
2022-08-05T09:09:57.052Z,34.01
2022-08-05T09:12:27.413Z,34.25
2022-08-05T09:14:59.420Z,34.14
2022-08-05T09:17:40.516Z,34.84
2022-08-05T09:20:09.880Z,34.88
2022-08-05T09:23:07.899Z,34.42
2022-08-05T09:26:01.958Z,35.02
2022-08-05T09:28:32.205Z,35.29
2022-08-05T09:31:43.396Z,34.89
2022-08-05T09:34:01.653Z,34.40
2022-08-05T09:36:54.323Z,34.45
2022-08-05T09:39:41.426Z,34.74
2022-08-05T09:42:17.510Z,33.45
2022-08-05T09:44:52.361Z,33.41
2022-08-05T09:47:48.490Z,33.54
2022-08-05T09:50:18.132Z,33.08
2022-08-05T09:53:02.424Z,32.17
2022-08-05T09:55:59.117Z,31.95
2022-08-05T09:58:23.326Z,32.30
2022-08-05T10:01:01.039Z,32.79
2022-08-05T10:03:56.475Z,32.66
2022-08-05T10:06:16.128Z,32.41
2022-08-05T10:08:43.488Z,31.86
2022-08-05T10:11:21.933Z,31.01
2022-08-05T10:13:54.676Z,30.62
2022-08-05T10:16:52.366Z,30.32
2022-08-05T10:19:23.693Z,30.21
2022-08-05T10:21:59.558Z,30.34
2022-08-05T10:24:27.373Z,29.80
2022-08-05T10:27:00.472Z,30.20
2022-08-05T10:30:07.143Z,30.36
2022-08-05T10:33:01.444Z,29.81
2022-08-05T10:35:07.432Z,29.27
2022-08-05T10:37:41.313Z,29.33
2022-08-05T10:40:39.153Z,29.42
2022-08-05T10:43:13.949Z,29.09
2022-08-05T10:45:42.062Z,29.55
2022-08-05T10:48:35.095Z,29.44
2022-08-05T10:51:22.101Z,29.42
2022-08-05T10:53:58.355Z,28.99
2022-08-05T10:56:30.157Z,29.20
2022-08-05T10:59:07.137Z,29.05
2022-08-05T11:01:54.947Z,28.74
2022-08-05T11:04:32.003Z,28.90
2022-08-05T11:07:06.563Z,28.54
2022-08-05T11:09:47.160Z,28.72
2022-08-05T11:12:27.150Z,28.90
2022-08-05T11:15:19.005Z,28.97
2022-08-05T11:17:59.417Z,29.20
2022-08-05T11:20:47.653Z,29.02
2022-08-05T11:24:02.847Z,28.87
2022-08-05T11:26:33.936Z,28.63
2022-08-05T11:29:12.027Z,28.17
2022-08-05T11:31:56.648Z,28.10
2022-08-05T11:34:37.804Z,28.42
2022-08-05T11:37:06.184Z,28.71
2022-08-05T11:40:00.671Z,28.17
2022-08-05T11:42:32.542Z,28.41
2022-08-05T11:45:06.164Z,28.33
2022-08-05T11:47:54.597Z,28.49
2022-08-05T11:50:22.946Z,28.34
2022-08-05T11:52:53.173Z,28.52
2022-08-05T11:55:32.312Z,27.87
2022-08-05T11:58:09.968Z,28.71
2022-08-05T12:00:41.289Z,28.38
2022-08-05T12:03:29.349Z,29.07
2022-08-05T12:06:02.851Z,28.84
2022-08-05T12:08:31.732Z,28.47
2022-08-05T12:11:04.128Z,28.48
2022-08-05T12:13:49.263Z,27.73
2022-08-05T12:16:27.149Z,27.54
2022-08-05T12:18:56.211Z,28.13
2022-08-05T12:21:24.702Z,27.87
2022-08-05T12:24:05.048Z,27.62
2022-08-05T12:26:36.257Z,28.27
2022-08-05T12:29:05.530Z,27.98
2022-08-05T12:31:43.676Z,27.98
2022-08-05T12:34:38.673Z,28.29
2022-08-05T12:37:17.113Z,28.15
2022-08-05T12:39:48.502Z,28.12
2022-08-05T12:42:19.801Z,27.64
2022-08-05T12:44:47.850Z,28.31
2022-08-05T12:47:28.645Z,28.41
2022-08-05T12:50:04.339Z,27.63
2022-08-05T12:52:39.081Z,27.64
2022-08-05T12:55:26.484Z,27.80
2022-08-05T12:58:38.693Z,28.03
2022-08-05T13:02:00.762Z,27.72
2022-08-05T13:03:33.025Z,27.89
2022-08-05T13:06:01.652Z,28.25
2022-08-05T13:08:32.938Z,28.21
2022-08-05T13:11:02.312Z,28.06
2022-08-05T13:14:06.560Z,27.93
2022-08-05T13:16:17.724Z,27.73
2022-08-05T13:18:55.297Z,28.08
2022-08-05T13:21:28.411Z,27.73
2022-08-05T13:24:08.873Z,28.21
2022-08-05T13:26:36.578Z,28.48
2022-08-05T13:29:05.124Z,28.44
2022-08-05T13:32:02.850Z,27.73
2022-08-05T13:34:25.832Z,28.14
2022-08-05T13:36:54.143Z,28.26
2022-08-05T13:40:13.140Z,27.96
2022-08-05T13:42:14.680Z,27.85
2022-08-05T13:44:46.269Z,28.28
2022-08-05T13:47:34.737Z,29.12
2022-08-05T13:50:04.416Z,28.33
2022-08-05T13:52:35.518Z,28.19
2022-08-05T13:55:07.463Z,27.81
2022-08-05T13:57:50.900Z,28.19
2022-08-05T14:00:27.432Z,28.69
2022-08-05T14:02:56.966Z,28.39
2022-08-05T14:05:48.084Z,28.73
2022-08-05T14:08:20.068Z,28.11
2022-08-05T14:10:48.993Z,28.35
2022-08-05T14:13:16.444Z,27.62
2022-08-05T14:16:05.835Z,28.30
2022-08-05T14:18:31.255Z,28.27
2022-08-05T14:21:00.126Z,28.29
2022-08-05T14:23:33.660Z,28.20
2022-08-05T14:26:04.955Z,28.02
2022-08-05T14:28:33.783Z,28.36
2022-08-05T14:31:02.127Z,28.41
2022-08-05T14:33:56.747Z,28.68
2022-08-05T14:36:21.531Z,28.59
2022-08-05T14:38:50.276Z,28.24
2022-08-05T14:41:18.688Z,28.78
2022-08-05T14:44:01.473Z,28.58
2022-08-05T14:46:39.232Z,28.98
2022-08-05T14:49:10.870Z,28.62
2022-08-05T14:51:42.836Z,28.84
2022-08-05T14:54:27.746Z,29.21
2022-08-05T14:56:57.972Z,28.21
2022-08-05T14:59:29.525Z,28.12
2022-08-05T15:02:15.769Z,29.17
2022-08-05T15:04:45.004Z,29.05
2022-08-05T15:08:06.315Z,29.13
2022-08-05T15:10:03.269Z,28.50
2022-08-05T15:12:41.057Z,28.62
2022-08-05T15:15:18.269Z,28.37
2022-08-05T15:18:05.956Z,28.28
2022-08-05T15:20:33.417Z,28.89
2022-08-05T15:23:07.850Z,28.38
2022-08-05T15:25:41.077Z,29.42
2022-08-05T15:28:19.163Z,29.52
2022-08-05T15:30:53.017Z,29.28
2022-08-05T15:33:56.678Z,28.73
2022-08-05T15:36:16.643Z,28.86
2022-08-05T15:38:46.416Z,29.30
2022-08-05T15:41:21.833Z,29.21
2022-08-05T15:43:51.501Z,28.66
2022-08-05T15:46:24.370Z,29.08
2022-08-05T15:48:58.018Z,29.42
2022-08-05T15:52:13.397Z,28.97
2022-08-05T15:54:16.741Z,29.56
2022-08-05T15:56:44.103Z,29.24
2022-08-05T15:59:21.750Z,29.52
2022-08-05T16:01:52.648Z,29.29
2022-08-05T16:04:25.551Z,29.22
2022-08-05T16:06:55.563Z,29.81
2022-08-05T16:09:24.093Z,29.37
2022-08-05T16:11:53.757Z,29.06
2022-08-05T16:14:22.574Z,29.12
2022-08-05T16:16:50.092Z,29.19
2022-08-05T16:19:25.887Z,29.11
2022-08-05T16:22:05.402Z,29.91
2022-08-05T16:24:41.626Z,30.00
2022-08-05T16:27:18.941Z,30.52
2022-08-05T16:29:50.880Z,31.06
2022-08-05T16:32:28.544Z,30.79
2022-08-05T16:34:58.968Z,30.45
2022-08-05T16:38:03.360Z,31.32
2022-08-05T16:40:28.650Z,31.28
2022-08-05T16:42:57.251Z,31.25
2022-08-05T16:46:07.098Z,31.15
2022-08-05T16:48:12.144Z,31.64
2022-08-05T16:50:54.170Z,31.21
2022-08-05T16:53:32.269Z,30.96
2022-08-05T16:56:10.268Z,31.41
2022-08-05T16:58:39.441Z,31.12
2022-08-05T17:01:07.106Z,31.83
2022-08-05T17:03:38.949Z,31.84
2022-08-05T17:06:06.663Z,31.94
2022-08-05T17:08:51.747Z,32.15
2022-08-05T17:11:23.903Z,32.10
2022-08-05T17:14:05.687Z,32.10
2022-08-05T17:16:36.139Z,32.02
2022-08-05T17:19:07.437Z,32.34
2022-08-05T17:21:37.637Z,32.38
2022-08-05T17:24:18.685Z,32.46
2022-08-05T17:26:57.541Z,33.13
2022-08-05T17:29:33.973Z,33.25
2022-08-05T17:32:16.574Z,33.50
2022-08-05T17:34:47.918Z,33.56
2022-08-05T17:37:40.688Z,34.07
2022-08-05T17:40:10.729Z,34.62
2022-08-05T17:42:42.971Z,34.57
2022-08-05T17:45:22.627Z,35.80
2022-08-05T17:47:54.521Z,35.60
2022-08-05T17:50:28.638Z,35.75
2022-08-05T17:52:59.283Z,35.87
2022-08-05T17:55:38.468Z,36.42
2022-08-05T17:58:13.219Z,36.88
2022-08-05T18:00:45.315Z,36.19
2022-08-05T18:03:33.211Z,37.53
2022-08-05T18:06:11.873Z,37.00
2022-08-05T18:08:44.470Z,37.53
2022-08-05T18:11:24.440Z,37.51
2022-08-05T18:14:03.597Z,36.65
2022-08-05T18:16:32.619Z,37.02
2022-08-05T18:18:59.872Z,37.38
2022-08-05T18:21:28.175Z,37.53
2022-08-05T18:24:14.947Z,38.33
2022-08-05T18:26:43.877Z,38.55
2022-08-05T18:29:11.363Z,38.90
2022-08-05T18:31:42.954Z,38.89
2022-08-05T18:34:12.808Z,39.15
2022-08-05T18:36:43.662Z,39.50
2022-08-05T18:39:42.264Z,39.64
2022-08-05T18:42:06.336Z,39.83
2022-08-05T18:44:48.983Z,40.37
2022-08-05T18:47:22.845Z,40.34
2022-08-05T18:50:15.772Z,40.55
2022-08-05T18:52:50.830Z,40.38
2022-08-05T18:55:19.538Z,40.51
2022-08-05T18:57:52.718Z,41.16
2022-08-05T19:00:25.013Z,41.91
2022-08-05T19:02:57.451Z,41.83
2022-08-05T19:06:12.019Z,41.61
2022-08-05T19:08:13.694Z,42.42
2022-08-05T19:10:42.913Z,42.14
2022-08-05T19:13:15.602Z,42.41
2022-08-05T19:15:59.020Z,42.73
2022-08-05T19:18:29.017Z,43.51
2022-08-05T19:20:56.698Z,44.14
2022-08-05T19:24:07.615Z,44.78
2022-08-05T19:26:12.250Z,44.76
2022-08-05T19:28:43.317Z,44.53
2022-08-05T19:31:13.693Z,44.52
2022-08-05T19:33:55.733Z,44.63
2022-08-05T19:36:25.756Z,44.82
2022-08-05T19:39:00.901Z,44.32
2022-08-05T19:41:58.293Z,44.57
2022-08-05T19:44:19.701Z,45.32
2022-08-05T19:46:47.233Z,45.42
2022-08-05T19:49:18.113Z,45.56
2022-08-05T19:52:05.861Z,45.59
2022-08-05T19:54:34.565Z,45.87
2022-08-05T19:57:08.418Z,46.09
2022-08-05T19:59:55.107Z,46.25
2022-08-05T20:02:26.009Z,46.37
2022-08-05T20:04:55.006Z,46.70
2022-08-05T20:07:46.854Z,47.35
2022-08-05T20:10:13.633Z,47.28
2022-08-05T20:12:47.634Z,47.34
2022-08-05T20:15:48.876Z,47.48
2022-08-05T20:18:10.267Z,47.06
2022-08-05T20:20:55.986Z,47.13
2022-08-05T20:23:39.269Z,47.16
2022-08-05T20:26:16.603Z,47.26
2022-08-05T20:28:46.240Z,47.63
2022-08-05T20:31:16.580Z,47.34
2022-08-05T20:33:44.984Z,47.35
2022-08-05T20:36:14.252Z,47.39
2022-08-05T20:38:54.265Z,47.48
2022-08-05T20:41:43.215Z,47.54
2022-08-05T20:44:28.920Z,47.48
2022-08-05T20:46:58.913Z,47.67
2022-08-05T20:49:26.643Z,47.53
2022-08-05T20:51:54.726Z,48.35
2022-08-05T20:54:25.986Z,48.76
2022-08-05T20:57:14.266Z,48.80
2022-08-05T21:00:10.219Z,49.11
2022-08-05T21:02:29.611Z,49.40
2022-08-05T21:04:57.177Z,49.22
2022-08-05T21:07:24.739Z,49.26
2022-08-05T21:10:13.753Z,50.11
2022-08-05T21:12:41.217Z,49.83
2022-08-05T21:15:26.120Z,49.30
2022-08-05T21:18:01.307Z,49.56
2022-08-05T21:20:33.036Z,49.82
2022-08-05T21:23:01.517Z,50.34
2022-08-05T21:25:33.949Z,50.62
2022-08-05T21:28:02.977Z,50.90
2022-08-05T21:30:31.570Z,51.30
2022-08-05T21:32:59.904Z,50.99
2022-08-05T21:35:55.343Z,51.22
2022-08-05T21:38:17.823Z,51.12
2022-08-05T21:40:45.266Z,51.74
2022-08-05T21:43:24.315Z,51.79
2022-08-05T21:45:57.803Z,51.66
2022-08-05T21:48:28.531Z,51.74
2022-08-05T21:50:57.255Z,51.85
2022-08-05T21:53:27.365Z,50.98
2022-08-05T21:56:06.030Z,51.06
2022-08-05T21:58:48.227Z,51.96
2022-08-05T22:01:26.187Z,52.52
2022-08-05T22:03:53.954Z,52.52
2022-08-05T22:06:23.095Z,52.43
2022-08-05T22:09:13.971Z,52.78
2022-08-05T22:11:43.308Z,52.85
2022-08-05T22:14:33.698Z,53.03
2022-08-05T22:17:05.097Z,53.06
2022-08-05T22:20:00.080Z,52.81
2022-08-05T22:22:27.769Z,52.73
2022-08-05T22:25:21.071Z,52.50
2022-08-05T22:28:08.359Z,52.56
2022-08-05T22:30:55.931Z,52.56
2022-08-05T22:33:55.622Z,52.04
2022-08-05T22:36:14.205Z,52.40
2022-08-05T22:38:48.712Z,52.68
2022-08-05T22:42:04.713Z,52.77
2022-08-05T22:44:08.145Z,53.28
2022-08-05T22:46:39.790Z,53.44
2022-08-05T22:49:12.432Z,53.14
2022-08-05T22:52:04.775Z,52.96
2022-08-05T22:54:36.351Z,53.40
2022-08-05T22:57:05.021Z,53.54
2022-08-05T22:59:45.161Z,53.68
2022-08-05T23:02:17.448Z,53.50
2022-08-05T23:04:51.941Z,53.60
2022-08-05T23:07:22.270Z,53.61
2022-08-05T23:09:57.666Z,53.63
2022-08-05T23:12:33.298Z,53.59
2022-08-05T23:15:09.132Z,53.70
2022-08-05T23:17:59.583Z,53.58
2022-08-05T23:20:24.566Z,53.41
2022-08-05T23:22:55.879Z,53.63
2022-08-05T23:25:53.155Z,53.05
2022-08-05T23:28:11.933Z,53.28
2022-08-05T23:30:43.913Z,52.70
2022-08-05T23:33:22.261Z,53.05
2022-08-05T23:35:55.803Z,53.31
2022-08-05T23:38:24.607Z,53.62
2022-08-05T23:40:52.576Z,53.90
2022-08-05T23:43:25.799Z,53.97
2022-08-05T23:46:20.146Z,53.85
2022-08-05T23:49:00.999Z,53.89
2022-08-05T23:51:53.567Z,53.90
2022-08-05T23:54:36.526Z,53.96
2022-08-05T23:57:06.602Z,53.55
